Time;durP1;ratioP1;P1;durP2;ratioP2;P2;SDS_P1;SDS_P2;PMS_P1;PMS_P2;Temp;Humidity;BMP_temperature;BMP_pressure;BME280_temperature;BME280_humidity;BME280_pressure;Samples;Min_cycle;Max_cycle;Signal;HPM_P1;HPM_P2
2022/09/11 05:48:54;;;;;;;6.40;5.47;;;;;;;15.98;79.10;96788.94;4982970;28;20058;-81
2022/09/11 06:04:39;;;;;;;7.68;6.85;;;;;;;16.01;78.78;96814.84;4982021;28;20051;-81
2022/09/11 06:12:51;;;;;;;8.27;7.45;;;;;;;16.03;78.37;96824.16;5267097;23;20046;-80
2022/09/11 06:15:24;;;;;;;9.00;7.72;;;;;;;16.04;78.71;96822.31;4965097;29;20056;-80
2022/09/11 06:31:35;;;;;;;8.65;7.70;;;;;;;16.11;78.44;96843.31;5580198;23;20043;-80
2022/09/11 06:34:09;;;;;;;9.10;8.25;;;;;;;16.11;78.72;96838.06;4963600;28;20039;-81
2022/09/11 06:39:19;;;;;;;8.65;7.85;;;;;;;16.15;78.44;96847.16;4925335;29;20060;-81
2022/09/11 06:41:52;;;;;;;9.75;8.13;;;;;;;16.16;78.57;96851.38;4926194;29;20037;-80
2022/09/11 06:44:29;;;;;;;8.65;7.85;;;;;;;16.19;78.92;96850.97;4925265;29;20032;-80
2022/09/11 06:47:12;;;;;;;10.75;8.65;;;;;;;16.20;78.30;96855.22;4924392;29;20069;-79
2022/09/11 07:59:12;;;;;;;6.93;6.22;;;;;;;16.67;75.86;96926.84;5002048;28;20087;-80
2022/09/11 08:16:23;;;;;;;36.95;26.95;;;;;;;16.80;75.73;96932.06;5175240;23;20061;-87
2022/09/11 08:18:52;;;;;;;30.55;22.42;;;;;;;16.85;75.49;96929.59;4985978;28;20059;-86
2022/09/11 08:21:20;;;;;;;7.70;6.95;;;;;;;16.86;74.53;96925.94;4984585;28;20509;-88
2022/09/11 08:23:47;;;;;;;6.90;6.05;;;;;;;16.89;74.01;96930.78;4984916;28;20053;-82
2022/09/11 08:26:20;;;;;;;6.75;5.78;;;;;;;16.93;73.75;96935.66;4984348;28;20428;-83
2022/09/11 09:08:43;;;;;;;5.75;5.20;;;;;;;17.32;71.74;96970.59;6232330;22;1210976;-86
2022/09/11 09:11:21;;;;;;;5.95;5.38;;;;;;;17.35;71.71;96965.72;6228049;23;20020;-85
2022/09/11 09:14:07;;;;;;;6.25;4.57;;;;;;;17.41;72.14;96964.06;6231033;23;20099;-88
2022/09/11 09:16:45;;;;;;;4.60;4.20;;;;;;;17.45;72.19;96970.53;6231392;23;20017;-86
2022/09/11 09:19:17;;;;;;;6.25;4.32;;;;;;;17.48;72.24;96978.00;6230562;23;20055;-82
2022/09/11 18:25:59;;;;;;;5.80;3.92;;;;;;;18.46;63.90;96903.22;6201253;22;19939;-79
2022/09/11 18:28:27;;;;;;;4.65;4.10;;;;;;;18.39;63.89;96907.81;6191921;23;20013;-84
2022/09/11 18:31:01;;;;;;;6.88;5.28;;;;;;;18.36;64.25;96912.72;6191199;23;20021;-84
2022/09/11 18:33:28;;;;;;;;;;;;;;;18.35;64.07;96909.28;6191980;23;20029;-82
2022/09/11 18:35:56;;;;;;;7.75;4.60;;;;;;;18.27;64.15;96909.56;6191651;23;19923;-80
2022/09/11 18:49:14;;;;;;;5.32;4.82;;;;;;;18.00;65.30;96907.28;6184842;23;20071;-80
2022/09/11 18:51:41;;;;;;;5.65;4.88;;;;;;;17.96;65.47;96914.00;6186829;23;20096;-85
2022/09/11 18:54:13;;;;;;;5.65;5.20;;;;;;;17.92;65.68;96912.84;6188942;23;20017;-81
2022/09/11 18:56:42;;;;;;;5.88;5.13;;;;;;;17.88;65.56;96920.38;6196040;23;20017;-82
2022/09/11 18:59:14;;;;;;;5.87;4.43;;;;;;;17.85;65.89;96923.47;6195745;23;20021;-82
2022/09/11 19:01:41;;;;;;;9.98;5.28;;;;;;;17.83;65.96;96922.09;6196955;23;20314;-84
2022/09/11 19:04:11;;;;;;;5.65;5.15;;;;;;;17.80;66.14;96930.38;6196311;23;20017;-85
2022/09/11 19:06:40;;;;;;;5.35;4.35;;;;;;;17.75;66.26;96932.88;6196008;23;20017;-83
2022/09/11 19:09:11;;;;;;;6.30;5.32;;;;;;;17.69;66.45;96929.31;6196626;23;20021;-81
2022/09/11 19:11:39;;;;;;;7.05;5.38;;;;;;;17.63;66.51;96932.81;6194330;23;20040;-79
2022/09/11 19:14:09;;;;;;;5.95;5.30;;;;;;;17.57;66.38;96926.56;6193041;23;20017;-76
2022/09/11 19:16:38;;;;;;;5.47;4.88;;;;;;;17.53;66.70;96929.88;6187565;23;20503;-75
2022/09/11 19:19:06;;;;;;;7.70;5.40;;;;;;;17.44;66.85;96929.34;6188884;23;20021;-77
2022/09/11 19:21:35;;;;;;;6.30;5.40;;;;;;;17.34;66.86;96937.75;6187843;23;20021;-77
2022/09/11 19:24:05;;;;;;;6.10;5.50;;;;;;;17.25;67.02;96929.31;6188332;23;20021;-77
2022/09/11 19:26:36;;;;;;;5.25;4.80;;;;;;;17.16;66.50;96930.56;6187724;23;20017;-76
2022/09/11 19:29:04;;;;;;;7.00;5.10;;;;;;;17.07;66.47;96930.03;6187277;23;20105;-79
2022/09/11 19:31:32;;;;;;;5.50;4.85;;;;;;;17.01;66.62;96932.72;6188501;23;20353;-77
2022/09/11 19:34:01;;;;;;;5.75;5.15;;;;;;;16.94;66.67;96929.34;6188584;23;20032;-75
2022/09/11 19:36:31;;;;;;;6.60;5.35;;;;;;;16.87;66.81;96938.09;6187446;23;20028;-77
2022/09/11 19:38:58;;;;;;;6.05;5.30;;;;;;;16.81;67.11;96932.88;6187830;23;20021;-77
2022/09/11 19:41:30;;;;;;;6.63;5.95;;;;;;;16.79;67.60;96940.97;6186220;23;20032;-76
2022/09/11 19:43:57;;;;;;;5.95;4.68;;;;;;;16.76;67.37;96941.38;6187675;23;20036;-77
2022/09/11 19:46:28;;;;;;;5.82;5.32;;;;;;;16.71;67.49;96949.13;6188338;23;20024;-76
2022/09/11 19:48:57;;;;;;;5.95;5.03;;;;;;;16.67;67.87;96945.28;6187249;23;20025;-76
2022/09/11 19:51:29;;;;;;;6.18;5.57;;;;;;;16.64;68.05;96949.16;6187161;23;20056;-77
2022/09/11 19:54:01;;;;;;;5.70;5.20;;;;;;;16.60;68.11;96947.97;6188001;23;20036;-77
2022/09/11 19:56:32;;;;;;;6.25;5.57;;;;;;;16.54;68.34;96938.28;6192062;23;20529;-78
2022/09/11 19:59:00;;;;;;;7.35;5.38;;;;;;;16.46;68.42;96939.34;6197628;23;20025;-77
2022/09/11 20:01:29;;;;;;;6.10;5.43;;;;;;;16.40;68.68;96937.53;6197415;23;20358;-78
2022/09/11 20:03:57;;;;;;;6.22;5.05;;;;;;;16.36;68.84;96935.53;6198014;23;20077;-77
2022/09/11 20:06:29;;;;;;;6.55;4.85;;;;;;;16.31;69.04;96937.97;6199671;23;20043;-79
2022/09/11 20:08:58;;;;;;;6.10;5.53;;;;;;;16.25;69.09;96929.91;6198407;23;20402;-78
2022/09/11 20:11:47;;;;;;;6.35;5.38;;;;;;;16.22;69.32;96932.13;6197749;23;20035;-78
2022/09/11 20:14:14;;;;;;;6.45;5.55;;;;;;;16.19;69.27;96932.56;6199164;23;20025;-78
2022/09/11 20:16:42;;;;;;;8.43;7.47;;;;;;;16.17;69.39;96931.97;6198061;23;20099;-78
2022/09/11 20:19:10;;;;;;;6.35;5.68;;;;;;;16.14;69.58;96935.03;6199083;23;20036;-78
2022/09/11 20:21:38;;;;;;;6.22;5.60;;;;;;;16.12;69.49;96931.81;6197731;23;20076;-80
2022/09/11 20:24:06;;;;;;;5.38;4.63;;;;;;;16.09;69.54;96932.19;6199073;23;20029;-79
2022/09/11 20:26:33;;;;;;;6.57;5.55;;;;;;;16.02;69.62;96930.41;6199565;23;20073;-78
2022/09/11 20:29:05;;;;;;;9.38;5.35;;;;;;;15.98;69.88;96928.38;6198528;23;20345;-77
2022/09/11 20:31:34;;;;;;;6.28;5.68;;;;;;;15.93;69.79;96930.84;6196787;23;20076;-78
2022/09/11 20:34:11;;;;;;;7.10;6.03;;;;;;;15.87;70.00;96921.94;6197997;23;20076;-77
2022/09/11 20:36:38;;;;;;;6.20;5.60;;;;;;;15.82;70.05;96925.19;6199331;23;20032;-81
2022/09/11 20:39:06;;;;;;;6.70;6.10;;;;;;;15.77;70.35;96921.59;6199404;23;20024;-84
2022/09/11 20:41:34;;;;;;;6.13;5.53;;;;;;;15.73;70.27;96920.38;6197118;23;20027;-78
2022/09/11 20:44:04;;;;;;;8.27;7.47;;;;;;;15.65;70.57;96924.81;6194905;23;20021;-77
2022/09/11 20:46:31;;;;;;;7.07;6.07;;;;;;;15.61;70.58;96921.00;6192786;23;20017;-79
2022/09/11 20:48:59;;;;;;;9.75;6.22;;;;;;;15.57;70.60;96921.59;6192179;23;20552;-76
2022/09/11 20:51:27;;;;;;;7.10;6.40;;;;;;;15.55;70.84;96923.63;6192751;23;20025;-77
2022/09/11 20:53:55;;;;;;;6.57;5.80;;;;;;;15.54;70.61;96925.44;6193738;23;20044;-75
2022/09/11 20:56:23;;;;;;;7.00;6.40;;;;;;;15.53;70.53;96923.81;6193682;23;20032;-77
2022/09/11 20:58:51;;;;;;;7.45;5.78;;;;;;;15.53;70.71;96923.81;6192276;23;20028;-75
2022/09/11 21:01:22;;;;;;;6.60;5.72;;;;;;;15.52;70.65;96921.41;6192189;23;20025;-77
2022/09/11 21:03:51;;;;;;;7.13;5.75;;;;;;;15.52;70.46;96918.75;6192914;23;20029;-77
2022/09/11 21:06:21;;;;;;;7.05;6.32;;;;;;;15.49;70.35;96919.19;6193079;23;20480;-77
2022/09/11 21:08:54;;;;;;;8.15;6.95;;;;;;;15.44;70.47;96911.91;6193188;23;20032;-77
2022/09/11 21:11:22;;;;;;;6.85;5.88;;;;;;;15.41;70.51;96913.13;6191309;23;20021;-77
2022/09/11 21:13:49;;;;;;;7.30;6.32;;;;;;;15.38;70.53;96910.09;6193062;23;20027;-78
2022/09/11 21:16:18;;;;;;;7.47;5.65;;;;;;;15.34;70.92;96909.69;6192741;23;20059;-78
2022/09/11 21:18:49;;;;;;;5.97;5.47;;;;;;;15.33;70.85;96912.53;6192237;23;20020;-76
2022/09/11 21:21:17;;;;;;;6.07;5.53;;;;;;;15.33;71.13;96904.66;6194817;23;20024;-81
2022/09/11 21:23:45;;;;;;;6.35;5.75;;;;;;;15.34;70.90;96907.06;6191069;23;20338;-81
2022/09/11 21:26:15;;;;;;;7.72;5.70;;;;;;;15.35;70.77;96913.13;6190981;23;20024;-83
2022/09/11 21:28:43;;;;;;;6.38;5.78;;;;;;;15.34;70.84;96909.69;6191658;23;20048;-78
2022/09/11 21:31:11;;;;;;;6.50;5.82;;;;;;;15.36;70.91;96898.97;6190198;23;20053;-78
2022/09/11 21:33:39;;;;;;;6.65;5.95;;;;;;;15.35;70.69;96902.59;6191417;23;20053;-79
2022/09/11 21:36:08;;;;;;;6.28;5.68;;;;;;;15.33;70.60;96900.19;6191329;23;20021;-84
2022/09/11 21:38:36;;;;;;;6.72;5.38;;;;;;;15.31;70.70;96899.59;6189791;23;20021;-77
2022/09/11 21:41:06;;;;;;;6.22;5.45;;;;;;;15.29;70.88;96904.25;6189803;23;20025;-77
2022/09/11 21:43:34;;;;;;;7.10;5.20;;;;;;;15.28;70.67;96897.34;6191136;23;20028;-76
2022/09/11 21:46:03;;;;;;;6.38;5.78;;;;;;;15.25;70.54;96898.59;6191084;23;20051;-78
2022/09/11 21:48:33;;;;;;;6.85;5.32;;;;;;;15.23;71.05;96899.81;6189977;23;20077;-79
2022/09/11 21:51:08;;;;;;;6.38;5.78;;;;;;;15.21;70.82;96904.44;6191205;23;20067;-77
2022/09/11 21:53:38;;;;;;;7.13;5.65;;;;;;;15.16;70.69;96899.81;6191158;23;20453;-77
2022/09/11 21:56:06;;;;;;;5.78;5.05;;;;;;;15.12;70.88;96903.84;6191184;23;20021;-78
2022/09/11 21:58:34;;;;;;;9.07;5.68;;;;;;;15.11;71.06;96902.25;6190500;23;20146;-76
2022/09/11 22:01:04;;;;;;;13.10;6.07;;;;;;;15.08;70.83;96902.63;6189468;23;20017;-78
2022/09/11 22:03:32;;;;;;;6.55;5.40;;;;;;;15.06;70.99;96890.72;6189693;23;20044;-78
2022/09/11 22:06:04;;;;;;;5.97;5.32;;;;;;;15.04;70.97;96894.38;6192478;23;20025;-80
2022/09/11 22:08:31;;;;;;;5.70;5.20;;;;;;;15.01;70.85;96896.59;6191736;23;20357;-78
2022/09/11 22:11:03;;;;;;;8.82;5.10;;;;;;;14.98;71.01;96900.41;6191183;23;20028;-78
2022/09/11 22:13:31;;;;;;;5.63;4.82;;;;;;;14.95;70.92;96898.19;6192408;23;20033;-79
2022/09/11 22:15:59;;;;;;;6.40;5.03;;;;;;;14.92;70.94;96897.78;6192298;23;20389;-79
2022/09/11 22:18:27;;;;;;;6.00;5.40;;;;;;;14.87;70.94;96893.16;6191536;23;20461;-79
2022/09/11 22:20:57;;;;;;;8.27;5.88;;;;;;;14.83;71.10;96892.72;6190861;23;20020;-79
2022/09/11 22:23:24;;;;;;;7.95;5.70;;;;;;;14.82;71.28;96893.75;6192304;23;20108;-76
2022/09/11 22:25:58;;;;;;;6.68;5.97;;;;;;;14.82;71.39;96896.38;6191360;23;20503;-76
2022/09/11 22:28:27;;;;;;;6.00;5.50;;;;;;;14.83;71.36;96897.19;6191766;23;20361;-77
2022/09/11 22:30:55;;;;;;;6.15;5.55;;;;;;;14.85;71.19;96892.53;6190582;23;20021;-81
2022/09/11 22:33:23;;;;;;;5.93;5.43;;;;;;;14.86;71.24;96898.59;6191447;23;20361;-76
2022/09/11 22:35:50;;;;;;;6.25;5.03;;;;;;;14.83;71.23;96892.72;6192190;23;20116;-81
2022/09/11 22:38:18;;;;;;;6.78;6.03;;;;;;;14.80;71.14;96895.78;6191690;23;20031;-76
2022/09/11 22:40:52;;;;;;;7.22;6.53;;;;;;;14.77;71.56;96900.59;6190999;23;20031;-80
2022/09/11 22:43:19;;;;;;;7.03;6.32;;;;;;;14.74;71.22;96895.78;6191953;23;20052;-77
2022/09/11 22:45:52;;;;;;;6.03;5.43;;;;;;;14.71;71.42;96901.41;6191543;23;20103;-78
2022/09/11 22:48:20;;;;;;;8.75;5.63;;;;;;;14.68;71.47;96892.13;6191172;23;20016;-78
2022/09/11 22:50:47;;;;;;;6.72;5.18;;;;;;;14.66;71.45;96891.50;6191364;23;20496;-78
2022/09/11 22:53:15;;;;;;;5.63;5.13;;;;;;;14.63;71.05;96890.09;6192185;23;20049;-76
2022/09/11 22:55:43;;;;;;;6.70;6.10;;;;;;;14.61;71.37;96893.94;6192147;23;20035;-79
2022/09/11 22:58:11;;;;;;;6.15;5.55;;;;;;;14.60;71.43;96892.31;6191139;23;20051;-77
2022/09/11 23:00:39;;;;;;;5.78;5.28;;;;;;;14.60;71.74;96889.69;6191251;23;20021;-80
2022/09/11 23:03:08;;;;;;;5.50;5.05;;;;;;;14.60;71.43;96881.81;6191862;23;20021;-76
2022/09/11 23:08:37;;;;;;;5.80;5.00;;;;;;;14.67;72.15;96893.13;6189843;23;20469;-76
2022/09/11 23:11:06;;;;;;;6.13;5.57;;;;;;;14.70;71.63;96892.72;6190099;23;20025;-78
2022/09/11 23:13:34;;;;;;;6.00;5.40;;;;;;;14.75;72.23;96892.13;6190792;23;20017;-78
2022/09/11 23:16:11;;;;;;;6.47;5.45;;;;;;;14.82;73.76;96892.94;6191380;23;20032;-76
2022/09/11 23:18:41;;;;;;;6.65;5.68;;;;;;;14.81;71.48;96886.88;6192214;23;20028;-77
2022/09/11 23:21:09;;;;;;;6.85;5.40;;;;;;;14.76;71.15;96884.06;6193085;23;20029;-76
2022/09/11 23:23:41;;;;;;;7.28;5.07;;;;;;;14.71;71.07;96885.66;6193680;23;20439;-76
2022/09/11 23:26:09;;;;;;;8.88;5.47;;;;;;;14.67;71.11;96887.88;6194141;23;20028;-76
2022/09/11 23:28:37;;;;;;;6.40;5.80;;;;;;;14.64;71.15;96885.66;6194117;23;20025;-79
2022/09/11 23:31:11;;;;;;;6.40;5.43;;;;;;;14.60;71.32;96890.47;6193032;23;20021;-77
2022/09/11 23:33:38;;;;;;;7.20;5.40;;;;;;;14.59;71.35;96888.06;6192693;23;20032;-77
2022/09/11 23:36:09;;;;;;;5.75;5.25;;;;;;;14.58;71.60;96881.19;6193219;23;20024;-77
2022/09/11 23:38:37;;;;;;;7.13;5.10;;;;;;;14.59;71.43;96877.56;6192695;23;20025;-77
2022/09/11 23:41:05;;;;;;;8.27;5.53;;;;;;;14.58;71.61;96868.06;6192364;23;20025;-80
2022/09/11 23:43:32;;;;;;;6.25;5.65;;;;;;;14.55;71.76;96873.72;6191734;23;20461;-77
2022/09/11 23:46:00;;;;;;;6.15;5.55;;;;;;;14.54;71.98;96869.44;6192227;23;20091;-75
2022/09/11 23:48:28;;;;;;;6.40;5.80;;;;;;;14.53;72.13;96873.09;6192094;23;20127;-77
2022/09/11 23:50:55;;;;;;;6.93;5.28;;;;;;;14.54;72.29;96875.53;6191575;23;20027;-80
2022/09/11 23:53:24;;;;;;;6.68;5.70;;;;;;;14.56;72.04;96867.44;6192165;23;20104;-79
2022/09/11 23:55:52;;;;;;;6.72;6.03;;;;;;;14.54;72.03;96866.81;6192111;23;20021;-76
2022/09/11 23:58:19;;;;;;;6.90;6.20;;;;;;;14.51;72.23;96865.41;6192751;23;20031;-78
